Time;durP1;ratioP1;P1;durP2;ratioP2;P2;SDS_P1;SDS_P2;PMS_P1;PMS_P2;Temp;Humidity;BMP_temperature;BMP_pressure;BME280_temperature;BME280_humidity;BME280_pressure;Samples;Min_cycle;Max_cycle;Signal;HPM_P1;HPM_P2
2021/10/17 00:03:56;;;;;;;62.13;56.90;;;;;;;11.19;100.00;101945.03;1940892;74;33074;-69
2021/10/17 00:09:21;;;;;;;61.90;56.60;;;;;;;11.14;100.00;101939.41;1940754;74;32947;-68
2021/10/17 00:14:45;;;;;;;62.23;57.20;;;;;;;11.18;100.00;101932.77;1940891;74;32954;-69
2021/10/17 00:20:12;;;;;;;64.07;58.47;;;;;;;11.33;100.00;101925.43;1940912;74;32958;-69
2021/10/17 00:25:56;;;;;;;66.93;61.17;;;;;;;11.29;100.00;101917.87;2009849;71;33379;-67
2021/10/17 00:31:21;;;;;;;66.03;60.53;;;;;;;11.32;100.00;101920.12;1941057;74;33455;-67
2021/10/17 00:36:45;;;;;;;64.13;58.73;;;;;;;11.29;100.00;101914.55;1940868;74;33078;-69
2021/10/17 00:42:11;;;;;;;62.67;57.57;;;;;;;11.14;100.00;101913.55;1941023;74;33419;-69
2021/10/17 00:47:36;;;;;;;58.70;53.87;;;;;;;10.94;100.00;101917.81;1940884;74;33042;-69
2021/10/17 00:53:03;;;;;;;60.47;55.33;;;;;;;11.14;100.00;101917.16;1940949;74;33006;-69
2021/10/17 00:58:27;;;;;;;60.90;55.70;;;;;;;11.03;100.00;101912.62;1941021;74;33025;-69
2021/10/17 01:03:52;;;;;;;64.50;59.20;;;;;;;11.05;100.00;101906.23;1940881;74;32948;-67
2021/10/17 01:09:37;;;;;;;59.43;54.33;;;;;;;11.02;100.00;101908.70;2009622;71;32898;-68
2021/10/17 01:15:03;;;;;;;60.37;55.67;;;;;;;10.82;100.00;101908.78;1940951;74;33554;-69
2021/10/17 01:20:29;;;;;;;61.93;56.63;;;;;;;10.75;100.00;101897.56;1941041;74;32929;-68
2021/10/17 01:25:54;;;;;;;60.13;54.93;;;;;;;10.80;100.00;101891.52;1940940;74;32936;-69
2021/10/17 01:31:19;;;;;;;60.63;55.13;;;;;;;10.91;100.00;101888.31;1940837;74;32941;-67
2021/10/17 01:36:44;;;;;;;64.00;58.20;;;;;;;11.05;100.00;101881.20;1940939;74;33596;-67
2021/10/17 01:42:10;;;;;;;60.03;54.73;;;;;;;11.08;100.00;101881.25;1941019;74;33429;-68
2021/10/17 01:47:35;;;;;;;63.57;57.40;;;;;;;11.30;100.00;101879.20;1941016;74;32947;-67
2021/10/17 01:53:01;;;;;;;62.77;56.57;;;;;;;11.36;100.00;101873.98;1941002;74;33068;-67
2021/10/17 01:58:25;;;;;;;60.07;54.70;;;;;;;11.33;100.00;101867.02;1940880;74;32998;-67
2021/10/17 02:09:43;;;;;;;61.03;55.73;;;;;;;11.53;100.00;101854.35;1940756;74;33034;-68
2021/10/17 02:15:09;;;;;;;60.37;54.97;;;;;;;11.49;100.00;101858.23;1940788;74;32961;-69
2021/10/17 02:20:34;;;;;;;60.30;55.20;;;;;;;11.48;100.00;101842.63;1940975;74;33183;-69
2021/10/17 02:25:57;;;;;;;58.80;53.93;;;;;;;11.50;100.00;101842.38;1940858;74;32967;-69
2021/10/17 02:31:22;;;;;;;59.00;54.10;;;;;;;11.54;100.00;101851.31;1940961;74;33135;-69
2021/10/17 02:36:52;;;;;;;59.17;54.13;;;;;;;11.48;100.00;101841.78;1940877;74;33569;-69
2021/10/17 02:42:16;;;;;;;58.40;53.20;;;;;;;11.49;100.00;101838.75;1940826;74;33058;-68
2021/10/17 02:47:47;;;;;;;58.47;53.73;;;;;;;11.42;100.00;101839.55;1940994;74;33521;-67
2021/10/17 02:53:11;;;;;;;58.70;53.63;;;;;;;11.43;100.00;101838.41;1940918;74;33462;-68
2021/10/17 02:58:41;;;;;;;59.67;54.67;;;;;;;11.40;100.00;101830.06;1941044;74;33568;-68
2021/10/17 03:04:06;;;;;;;58.67;53.53;;;;;;;11.38;100.00;101821.71;1940904;74;33475;-69
2021/10/17 03:09:30;;;;;;;55.70;51.10;;;;;;;11.37;100.00;101813.07;1940954;74;33040;-69
2021/10/17 03:15:14;;;;;;;59.00;54.17;;;;;;;11.38;100.00;101802.23;1997482;71;33379;-68
2021/10/17 03:20:38;;;;;;;57.83;53.10;;;;;;;11.41;100.00;101799.75;1940948;74;33112;-68
2021/10/17 03:26:22;;;;;;;57.60;53.00;;;;;;;11.35;100.00;101793.02;1998328;71;32845;-67
2021/10/17 03:31:48;;;;;;;59.13;54.13;;;;;;;11.44;100.00;101791.41;1940866;74;33132;-68
2021/10/17 03:37:13;;;;;;;57.43;52.83;;;;;;;11.39;100.00;101796.94;1940940;74;33496;-67
2021/10/17 03:42:37;;;;;;;57.63;52.70;;;;;;;11.34;100.00;101797.73;1940784;74;33058;-67
2021/10/17 03:48:04;;;;;;;57.00;52.10;;;;;;;11.32;100.00;101811.64;1940969;74;33476;-69
2021/10/17 03:53:28;;;;;;;55.17;50.10;;;;;;;11.24;100.00;101807.41;1940944;74;33494;-68
2021/10/17 03:59:15;;;;;;;52.70;48.13;;;;;;;11.30;100.00;101802.70;1995026;71;33259;-69
2021/10/17 04:04:37;;;;;;;52.77;48.17;;;;;;;11.21;100.00;101807.92;1940772;74;33069;-67
2021/10/17 04:10:09;;;;;;;55.33;50.53;;;;;;;11.18;100.00;101810.41;1940882;74;32997;-68
2021/10/17 04:15:54;;;;;;;53.73;49.07;;;;;;;11.26;100.00;101806.58;2009471;71;33282;-68
2021/10/17 04:21:18;;;;;;;55.03;50.33;;;;;;;11.30;100.00;101806.87;1940983;74;33472;-68
2021/10/17 04:26:43;;;;;;;54.03;49.53;;;;;;;11.43;100.00;101804.48;1941045;74;33514;-67
2021/10/17 04:32:09;;;;;;;56.27;51.40;;;;;;;11.37;100.00;101809.74;1941112;74;33495;-67
2021/10/17 04:37:53;;;;;;;55.53;50.73;;;;;;;11.34;100.00;101814.42;2009690;71;33316;-69
2021/10/17 04:43:37;;;;;;;54.73;49.73;;;;;;;11.35;100.00;101804.14;2007346;71;33364;-67
2021/10/17 04:49:25;;;;;;;55.60;50.70;;;;;;;11.29;100.00;101808.85;1995043;71;32766;-68
2021/10/17 04:55:09;;;;;;;54.30;49.67;;;;;;;11.34;100.00;101799.67;2009565;71;32855;-67
2021/10/17 05:00:33;;;;;;;54.80;50.10;;;;;;;11.48;100.00;101807.01;1940830;74;32982;-68
2021/10/17 05:05:58;;;;;;;54.00;49.33;;;;;;;11.37;100.00;101813.07;1941000;74;33063;-69
2021/10/17 05:11:25;;;;;;;57.57;52.10;;;;;;;11.42;100.00;101804.77;1940982;74;33113;-69
2021/10/17 05:16:49;;;;;;;54.83;50.07;;;;;;;11.46;100.00;101798.95;1940827;74;32965;-69
2021/10/17 05:22:13;;;;;;;54.97;50.10;;;;;;;11.42;100.00;101802.80;1940739;74;32997;-69
2021/10/17 05:27:38;;;;;;;54.43;49.77;;;;;;;11.41;100.00;101797.52;1940841;74;33150;-68
2021/10/17 05:33:03;;;;;;;54.83;50.40;;;;;;;11.29;100.00;101796.33;1940930;74;33594;-68
2021/10/17 05:38:28;;;;;;;54.33;49.83;;;;;;;11.27;100.00;101800.47;1940996;74;32982;-68
2021/10/17 05:43:52;;;;;;;54.77;49.87;;;;;;;11.25;100.00;101800.72;1940796;74;33058;-69
2021/10/17 05:49:17;;;;;;;55.70;50.77;;;;;;;11.30;100.00;101794.36;1940929;74;33562;-67
2021/10/17 05:54:42;;;;;;;55.97;51.10;;;;;;;11.30;100.00;101797.14;1940744;74;33097;-67
2021/10/17 06:00:09;;;;;;;54.13;49.57;;;;;;;11.38;100.00;101806.41;1940804;74;32988;-68
2021/10/17 06:05:33;;;;;;;54.83;50.13;;;;;;;11.34;100.00;101813.58;1940821;74;32993;-68
2021/10/17 06:10:58;;;;;;;53.00;48.70;;;;;;;11.31;100.00;101814.13;1940776;74;33053;-69
2021/10/17 06:16:22;;;;;;;52.70;48.60;;;;;;;11.09;100.00;101824.50;1940957;74;33066;-70
2021/10/17 06:21:47;;;;;;;57.17;52.57;;;;;;;11.12;100.00;101822.06;1940843;74;33081;-68
2021/10/17 06:27:11;;;;;;;58.73;53.63;;;;;;;11.11;100.00;101825.09;1940874;74;32939;-68
2021/10/17 06:32:36;;;;;;;56.77;52.13;;;;;;;11.14;100.00;101822.62;1940805;74;33171;-69
2021/10/17 06:38:01;;;;;;;55.43;50.93;;;;;;;11.24;100.00;101824.65;1940713;74;33152;-70
2021/10/17 06:43:25;;;;;;;54.07;49.67;;;;;;;11.19;100.00;101820.44;1940802;74;33472;-70
2021/10/17 06:48:49;;;;;;;54.30;50.10;;;;;;;11.10;100.00;101831.75;1940922;74;32981;-69
2021/10/17 06:54:13;;;;;;;53.90;49.90;;;;;;;11.18;100.00;101841.00;1940955;74;33138;-68
2021/10/17 06:59:38;;;;;;;55.13;50.80;;;;;;;11.25;100.00;101835.48;1940991;74;33069;-70
2021/10/17 07:05:02;;;;;;;53.07;49.27;;;;;;;11.31;100.00;101834.98;1940910;74;33038;-70
2021/10/17 07:10:27;;;;;;;50.67;46.87;;;;;;;11.43;100.00;101824.50;1940805;74;32987;-69
2021/10/17 07:15:51;;;;;;;50.83;46.93;;;;;;;11.50;100.00;101815.94;1940971;74;33628;-71
2021/10/17 07:21:15;;;;;;;51.03;46.93;;;;;;;11.51;100.00;101817.05;1940903;74;33004;-70
2021/10/17 07:26:39;;;;;;;53.40;49.00;;;;;;;11.64;100.00;101819.36;1940976;74;33102;-69
2021/10/17 07:32:03;;;;;;;55.53;51.13;;;;;;;11.64;100.00;101821.30;1940986;74;33063;-69
2021/10/17 07:37:27;;;;;;;54.23;49.57;;;;;;;11.68;100.00;101816.91;1940842;74;33169;-70
2021/10/17 07:42:52;;;;;;;58.90;53.83;;;;;;;11.85;100.00;101812.02;1940674;74;32947;-69
2021/10/17 07:48:17;;;;;;;52.50;48.20;;;;;;;11.99;100.00;101816.52;1941010;74;33446;-69
2021/10/17 07:53:41;;;;;;;50.10;46.10;;;;;;;12.11;100.00;101831.05;1940707;74;32990;-69
2021/10/17 07:59:05;;;;;;;54.53;50.27;;;;;;;12.05;100.00;101822.41;1941033;74;33552;-70
2021/10/17 08:04:30;;;;;;;59.67;54.00;;;;;;;12.27;100.00;101829.48;1941044;74;33636;-71
2021/10/17 08:09:54;;;;;;;60.33;54.70;;;;;;;12.31;100.00;101822.80;1940798;74;33074;-70
2021/10/17 08:15:18;;;;;;;58.60;53.10;;;;;;;12.55;100.00;101828.16;1940858;74;33061;-68
2021/10/17 08:20:42;;;;;;;60.10;54.93;;;;;;;12.67;100.00;101825.96;1940842;74;33027;-70
2021/10/17 08:26:06;;;;;;;57.47;52.17;;;;;;;12.71;100.00;101830.42;1941091;74;33465;-70
2021/10/17 08:31:30;;;;;;;57.27;52.33;;;;;;;12.58;100.00;101826.21;1940960;74;33651;-71
2021/10/17 08:36:55;;;;;;;57.23;52.03;;;;;;;12.63;100.00;101825.39;1940744;74;33101;-71
2021/10/17 08:42:19;;;;;;;55.30;50.60;;;;;;;12.84;100.00;101820.13;1940779;74;33111;-69
2021/10/17 08:47:46;;;;;;;54.87;50.00;;;;;;;13.09;100.00;101823.52;1940725;74;32979;-70
2021/10/17 08:53:12;;;;;;;57.33;52.07;;;;;;;13.17;100.00;101831.37;1940949;74;33026;-69
2021/10/17 08:58:40;;;;;;;55.97;51.13;;;;;;;13.33;100.00;101831.64;1940707;74;33046;-70
2021/10/17 09:04:10;;;;;;;55.87;51.20;;;;;;;13.46;100.00;101824.65;1940925;74;33459;-71
2021/10/17 09:09:34;;;;;;;54.60;50.33;;;;;;;13.72;100.00;101826.84;1940767;74;33054;-70
2021/10/17 09:15:21;;;;;;;55.83;51.50;;;;;;;13.86;100.00;101836.31;1941036;74;33638;-69
2021/10/17 09:21:11;;;;;;;56.10;51.47;;;;;;;13.91;100.00;101851.08;1940899;74;33555;-69
2021/10/17 09:26:37;;;;;;;56.90;52.70;;;;;;;13.86;100.00;101858.66;1941458;74;33448;-79
2021/10/17 09:32:02;;;;;;;53.87;49.80;;;;;;;13.96;100.00;101855.27;1940790;74;33051;-70
2021/10/17 09:37:38;;;;;;;54.27;50.20;;;;;;;13.98;100.00;101852.20;1940822;74;33064;-71
2021/10/17 09:43:10;;;;;;;52.47;48.87;;;;;;;14.16;100.00;101844.60;1940897;74;33456;-70
2021/10/17 09:48:35;;;;;;;53.57;49.77;;;;;;;14.27;100.00;101845.38;1940811;74;33057;-71
2021/10/17 09:54:01;;;;;;;50.47;46.77;;;;;;;14.35;100.00;101837.80;1940792;74;33121;-69
2021/10/17 09:59:26;;;;;;;50.73;46.97;;;;;;;14.49;100.00;101831.34;1940951;74;33599;-68
2021/10/17 10:04:53;;;;;;;48.90;45.00;;;;;;;14.60;100.00;101826.52;1940772;74;33058;-69
2021/10/17 10:10:19;;;;;;;49.97;46.47;;;;;;;14.71;100.00;101823.95;1940825;74;33061;-69
2021/10/17 10:15:51;;;;;;;47.50;43.93;;;;;;;14.83;100.00;101831.41;1940957;74;33589;-67
2021/10/17 10:21:18;;;;;;;47.27;43.97;;;;;;;14.95;100.00;101829.64;1940930;74;33181;-69
2021/10/17 10:26:52;;;;;;;54.03;49.97;;;;;;;15.01;100.00;101839.12;1940948;74;33614;-69
2021/10/17 10:32:25;;;;;;;54.10;50.30;;;;;;;15.16;100.00;101842.91;1940988;74;33495;-69
2021/10/17 10:37:50;;;;;;;47.73;44.63;;;;;;;15.24;100.00;101831.93;1940741;74;32979;-70
2021/10/17 10:43:17;;;;;;;49.43;46.00;;;;;;;15.30;100.00;101835.53;1940801;74;33084;-69
2021/10/17 10:48:48;;;;;;;47.53;44.00;;;;;;;15.30;100.00;101834.97;1940689;74;33102;-68
2021/10/17 10:54:34;;;;;;;46.10;42.90;;;;;;;15.34;100.00;101831.86;1939950;74;32992;-67
2021/10/17 11:00:04;;;;;;;46.10;42.90;;;;;;;15.49;100.00;101842.91;1939777;74;31075;-68
2021/10/17 11:09:25;;;;;;;46.73;43.60;;;;;;;15.59;100.00;101838.38;1939790;74;33001;-69
2021/10/17 11:14:55;;;;;;;47.40;44.10;;;;;;;15.70;100.00;101831.56;1939935;74;33004;-69
2021/10/17 11:20:23;;;;;;;49.17;45.67;;;;;;;15.77;100.00;101834.84;1939912;74;33079;-68
2021/10/17 11:25:55;;;;;;;49.47;45.80;;;;;;;15.74;100.00;101841.05;1939880;74;33063;-67
2021/10/17 11:31:24;;;;;;;44.97;41.77;;;;;;;16.05;100.00;101833.11;1939794;74;31158;-69
2021/10/17 11:36:48;;;;;;;49.43;46.23;;;;;;;16.04;100.00;101837.07;1939730;74;33111;-68
2021/10/17 11:42:13;;;;;;;44.17;40.97;;;;;;;16.11;100.00;101829.13;1939789;74;31144;-72
2021/10/17 11:47:40;;;;;;;47.90;44.60;;;;;;;16.31;100.00;101845.69;1939673;74;33305;-71
2021/10/17 11:53:08;;;;;;;45.47;41.93;;;;;;;16.28;100.00;101821.91;1940078;74;33593;-71
2021/10/17 11:58:34;;;;;;;42.40;39.57;;;;;;;16.45;100.00;101811.58;1940164;74;31100;-70
2021/10/17 12:04:09;;;;;;;41.73;39.03;;;;;;;16.61;100.00;101807.45;1939871;74;31168;-70
2021/10/17 12:09:34;;;;;;;42.63;39.83;;;;;;;16.65;100.00;101811.88;1939757;74;31234;-70
2021/10/17 12:15:03;;;;;;;42.73;40.13;;;;;;;16.69;100.00;101798.35;1940020;74;33558;-69
2021/10/17 12:20:31;;;;;;;41.23;38.57;;;;;;;16.72;100.00;101794.96;1939902;74;33107;-68
2021/10/17 12:25:57;;;;;;;45.93;42.70;;;;;;;16.90;100.00;101775.61;1939992;74;31134;-69
2021/10/17 12:31:30;;;;;;;48.60;45.77;;;;;;;16.88;100.00;101758.23;1940037;74;31259;-70
2021/10/17 12:36:57;;;;;;;46.83;44.03;;;;;;;16.80;100.00;101750.78;1939833;74;33010;-69
2021/10/17 12:42:22;;;;;;;43.20;40.80;;;;;;;16.88;100.00;101750.65;1940024;74;33205;-69
2021/10/17 12:47:53;;;;;;;40.93;38.43;;;;;;;17.02;100.00;101743.13;1939917;74;31161;-69
2021/10/17 12:53:39;;;;;;;44.30;41.60;;;;;;;17.01;100.00;101714.78;1975657;72;32787;-68
2021/10/17 12:56:10;;;;;;;42.40;39.80;;;;;;;17.00;100.00;101731.92;1951099;73;26297;-71
2021/10/17 12:58:40;;;;;;;44.80;42.10;;;;;;;16.97;100.00;101733.95;1950755;73;26294;-71
2021/10/17 13:01:15;;;;;;;42.77;40.17;;;;;;;17.00;100.00;101735.56;1950637;73;26777;-68
2021/10/17 13:03:42;;;;;;;48.73;45.73;;;;;;;17.05;100.00;101736.05;1949807;73;26715;-69
2021/10/17 13:06:13;;;;;;;49.60;46.43;;;;;;;17.06;100.00;101728.73;1950842;73;24596;-69
2021/10/17 13:08:52;;;;;;;43.43;40.73;;;;;;;17.11;100.00;101727.24;1950788;73;24201;-68
2021/10/17 13:11:22;;;;;;;44.00;41.10;;;;;;;17.08;100.00;101720.82;1950620;73;24241;-69
2021/10/17 13:13:53;;;;;;;45.60;42.70;;;;;;;17.12;100.00;101719.62;1950532;73;24141;-69
2021/10/17 13:16:31;;;;;;;43.50;40.70;;;;;;;17.13;100.00;101715.69;1950655;73;24170;-69
2021/10/17 13:19:01;;;;;;;42.63;39.93;;;;;;;17.14;100.00;101721.00;1950840;73;24165;-69
2021/10/17 13:21:31;;;;;;;45.43;42.43;;;;;;;17.17;100.00;101716.17;1944242;73;24787;-69
2021/10/17 13:24:01;;;;;;;45.73;42.47;;;;;;;17.25;100.00;101708.44;1917025;75;26751;-70
2021/10/17 13:26:31;;;;;;;42.70;40.07;;;;;;;17.30;100.00;101705.53;1916774;75;26770;-69
2021/10/17 13:29:01;;;;;;;44.00;40.90;;;;;;;17.34;100.00;101703.50;1916831;75;24125;-68
2021/10/17 13:31:31;;;;;;;46.43;43.77;;;;;;;17.34;100.00;101702.09;1916809;75;26680;-68
2021/10/17 13:34:01;;;;;;;47.67;44.87;;;;;;;17.37;100.00;101695.28;1916666;75;24212;-68
2021/10/17 13:36:31;;;;;;;44.37;42.07;;;;;;;17.35;100.00;101696.75;1916876;75;26220;-68
2021/10/17 13:39:02;;;;;;;41.83;39.63;;;;;;;17.33;100.00;101697.05;1917096;75;24260;-71
2021/10/17 13:41:32;;;;;;;41.97;39.77;;;;;;;17.38;100.00;101699.77;1916825;75;26737;-72
2021/10/17 13:44:02;;;;;;;45.70;43.00;;;;;;;17.45;100.00;101696.00;1917342;75;26643;-70
2021/10/17 13:46:36;;;;;;;44.07;41.70;;;;;;;17.49;100.00;101704.06;1917183;75;24589;-70
2021/10/17 13:49:06;;;;;;;44.07;41.67;;;;;;;17.45;100.00;101704.42;1916018;75;24589;-70
2021/10/17 13:51:36;;;;;;;43.67;41.10;;;;;;;17.39;100.00;101703.41;1916768;75;24165;-68
2021/10/17 13:54:06;;;;;;;45.77;42.50;;;;;;;17.38;100.00;101700.33;1917061;75;24248;-68
2021/10/17 13:56:36;;;;;;;42.17;39.87;;;;;;;17.64;100.00;101707.16;1916864;75;24207;-69
2021/10/17 13:59:06;;;;;;;43.00;40.70;;;;;;;17.41;100.00;101709.56;1916981;75;24146;-70
2021/10/17 14:01:36;;;;;;;45.87;42.33;;;;;;;17.39;100.00;101702.01;1916674;75;24137;-69
2021/10/17 14:04:06;;;;;;;43.57;41.20;;;;;;;17.64;100.00;101715.02;1916741;75;24589;-69
2021/10/17 14:06:36;;;;;;;44.70;42.40;;;;;;;17.59;100.00;101699.66;1916171;75;24141;-69
2021/10/17 14:09:06;;;;;;;45.30;42.70;;;;;;;17.45;100.00;101703.59;1916154;75;24130;-69
2021/10/17 14:11:36;;;;;;;42.80;40.50;;;;;;;17.32;100.00;101701.02;1915995;75;26225;-69
2021/10/17 14:14:06;;;;;;;48.13;45.63;;;;;;;17.32;100.00;101707.20;1916486;75;24149;-69
2021/10/17 14:16:36;;;;;;;43.03;40.83;;;;;;;17.31;100.00;101713.39;1916265;75;24129;-69
2021/10/17 14:19:06;;;;;;;47.90;45.10;;;;;;;17.29;100.00;101706.67;1916172;75;24435;-69
2021/10/17 14:21:36;;;;;;;46.70;43.90;;;;;;;17.34;100.00;101708.55;1916084;74;24260;-69
2021/10/17 14:24:06;;;;;;;51.50;48.33;;;;;;;17.38;100.00;101719.99;1916061;75;24635;-69
2021/10/17 14:26:38;;;;;;;49.33;46.50;;;;;;;17.38;100.00;101719.99;1916033;75;26657;-69
2021/10/17 14:29:09;;;;;;;54.13;50.97;;;;;;;17.46;100.00;101721.52;1916188;75;24215;-69
2021/10/17 14:31:39;;;;;;;47.73;44.83;;;;;;;17.46;100.00;101720.67;1915927;75;24138;-68
2021/10/17 14:34:09;;;;;;;42.30;40.23;;;;;;;17.51;100.00;101724.23;1916160;75;24145;-70
2021/10/17 14:36:39;;;;;;;42.97;40.57;;;;;;;17.59;100.00;101717.08;1916140;75;24134;-70
2021/10/17 14:39:09;;;;;;;44.37;41.87;;;;;;;17.54;100.00;101710.16;1916081;75;24130;-69
2021/10/17 14:41:40;;;;;;;41.30;39.10;;;;;;;17.49;100.00;101707.44;1916042;75;24146;-68
2021/10/17 14:44:11;;;;;;;39.73;37.63;;;;;;;17.42;100.00;101706.99;1916053;75;24577;-70
2021/10/17 14:46:41;;;;;;;38.20;36.07;;;;;;;17.43;100.00;101701.64;1916049;75;24122;-69
2021/10/17 14:49:11;;;;;;;36.10;34.23;;;;;;;17.40;100.00;101689.06;1916211;75;24177;-69
2021/10/17 14:51:41;;;;;;;34.00;32.10;;;;;;;17.53;100.00;101694.44;1915976;75;26709;-70
2021/10/17 14:54:11;;;;;;;34.17;32.13;;;;;;;17.58;100.00;101690.98;1915962;75;24194;-69
2021/10/17 14:56:41;;;;;;;33.70;31.70;;;;;;;17.52;100.00;101687.98;1916213;75;24118;-69
2021/10/17 14:59:12;;;;;;;34.27;32.23;;;;;;;17.45;100.00;101687.57;1915971;75;26629;-69
2021/10/17 15:01:42;;;;;;;39.23;37.03;;;;;;;17.62;100.00;101696.81;1916033;75;24134;-69
2021/10/17 15:04:12;;;;;;;36.63;34.73;;;;;;;18.14;100.00;101686.98;1916084;75;24220;-69
2021/10/17 15:06:42;;;;;;;35.17;33.37;;;;;;;17.76;100.00;101686.38;1916173;75;24162;-69
2021/10/17 15:09:12;;;;;;;32.30;30.60;;;;;;;17.62;100.00;101686.41;1916057;75;24130;-69
2021/10/17 15:11:42;;;;;;;34.00;32.10;;;;;;;17.62;100.00;101685.01;1915951;75;24208;-69
2021/10/17 15:14:12;;;;;;;36.90;34.77;;;;;;;17.56;100.00;101679.19;1916091;75;24150;-69
2021/10/17 15:16:42;;;;;;;39.10;36.77;;;;;;;17.69;100.00;101678.95;1915974;75;24705;-69
2021/10/17 15:19:12;;;;;;;38.10;35.80;;;;;;;17.59;100.00;101654.70;1916223;75;24118;-69
2021/10/17 15:21:42;;;;;;;36.13;34.20;;;;;;;17.78;100.00;101681.30;1915952;74;24240;-69
2021/10/17 15:24:13;;;;;;;37.93;35.93;;;;;;;17.80;100.00;101683.80;1916071;75;24125;-70
2021/10/17 15:29:38;;;;;;;37.13;35.13;;;;;;;18.23;100.00;101678.02;1940058;74;31477;-70
2021/10/17 15:35:03;;;;;;;35.27;33.47;;;;;;;17.98;100.00;101687.87;1940181;74;31149;-68
2021/10/17 15:40:29;;;;;;;37.10;35.03;;;;;;;18.05;100.00;101677.63;1939899;74;31098;-69
2021/10/17 15:45:53;;;;;;;36.40;33.93;;;;;;;17.40;100.00;101691.05;1939979;74;31099;-69
2021/10/17 15:51:18;;;;;;;38.07;35.77;;;;;;;17.78;100.00;101691.70;1939972;74;31135;-69
2021/10/17 15:56:43;;;;;;;39.07;36.10;;;;;;;17.66;100.00;101695.04;1940100;74;31586;-68
2021/10/17 16:02:07;;;;;;;36.43;34.30;;;;;;;17.86;100.00;101695.17;1939909;74;31093;-70
2021/10/17 16:07:31;;;;;;;37.50;35.10;;;;;;;17.38;100.00;101708.19;1940263;74;31065;-70
2021/10/17 16:12:55;;;;;;;38.73;36.50;;;;;;;17.57;100.00;101703.91;1940038;74;31498;-68
2021/10/17 16:18:20;;;;;;;40.93;38.60;;;;;;;16.89;100.00;101714.44;1939818;74;33173;-70
2021/10/17 16:23:45;;;;;;;40.80;38.67;;;;;;;16.89;100.00;101736.05;1906472;75;31322;-68
2021/10/17 16:29:10;;;;;;;38.27;36.17;;;;;;;16.89;100.00;101729.03;1940130;74;31124;-68
2021/10/17 16:34:35;;;;;;;40.60;38.00;;;;;;;16.70;100.00;101722.88;1939970;74;31690;-68
2021/10/17 16:40:00;;;;;;;46.23;43.03;;;;;;;16.52;100.00;101728.45;1939824;74;31108;-69
2021/10/17 16:45:24;;;;;;;46.23;43.43;;;;;;;16.25;100.00;101715.97;1939731;74;33071;-67
2021/10/17 16:50:49;;;;;;;45.10;42.30;;;;;;;16.14;100.00;101735.45;1939782;74;31043;-69
2021/10/17 16:56:13;;;;;;;46.50;43.70;;;;;;;16.17;100.00;101746.65;1939939;74;31059;-69
2021/10/17 17:01:38;;;;;;;50.30;47.20;;;;;;;15.91;100.00;101748.38;1940093;74;33609;-66
2021/10/17 17:07:03;;;;;;;46.60;43.70;;;;;;;15.65;100.00;101737.21;1940019;74;33670;-71
2021/10/17 17:12:27;;;;;;;47.33;44.47;;;;;;;15.61;100.00;101733.90;1939879;74;33234;-74
2021/10/17 17:17:52;;;;;;;50.17;47.07;;;;;;;15.41;100.00;101727.91;1939805;74;31047;-71
2021/10/17 17:23:19;;;;;;;48.27;45.10;;;;;;;15.29;100.00;101742.88;1940076;74;33078;-73
2021/10/17 17:28:45;;;;;;;49.07;45.73;;;;;;;15.23;100.00;101747.68;1939970;74;31042;-70
2021/10/17 17:34:10;;;;;;;52.40;49.10;;;;;;;14.71;100.00;101761.02;1940224;74;33221;-71
2021/10/17 17:39:40;;;;;;;52.23;48.80;;;;;;;14.70;100.00;101758.50;1940111;74;33123;-73
2021/10/17 17:45:08;;;;;;;51.93;48.67;;;;;;;14.53;100.00;101754.15;1939942;74;32984;-70
2021/10/17 17:50:37;;;;;;;52.60;48.83;;;;;;;14.29;100.00;101758.72;1940443;74;33441;-70
2021/10/17 17:56:01;;;;;;;49.13;45.83;;;;;;;14.76;100.00;101777.73;1940904;74;33455;-71
2021/10/17 18:01:26;;;;;;;48.50;45.20;;;;;;;14.49;100.00;101779.62;1940197;74;33100;-72
2021/10/17 18:06:55;;;;;;;47.23;43.93;;;;;;;14.65;100.00;101799.08;1940044;74;32997;-71
2021/10/17 18:12:38;;;;;;;46.47;43.27;;;;;;;14.57;100.00;101811.16;1939899;74;33151;-74
2021/10/17 18:18:08;;;;;;;49.23;45.73;;;;;;;14.51;100.00;101820.69;1940777;74;32993;-74
2021/10/17 18:23:41;;;;;;;48.83;45.43;;;;;;;14.57;100.00;101823.74;1942758;74;33628;-73
2021/10/17 18:29:16;;;;;;;52.40;48.97;;;;;;;14.53;100.00;101828.24;1976676;72;32964;-72
2021/10/17 18:34:37;;;;;;;51.00;47.60;;;;;;;14.21;100.00;101827.79;1939927;74;33084;-75
2021/10/17 18:40:10;;;;;;;51.17;47.87;;;;;;;14.21;100.00;101841.77;1939897;74;33498;-75
2021/10/17 18:45:37;;;;;;;52.07;48.57;;;;;;;13.94;100.00;101842.16;2022035;71;32854;-73
2021/10/17 18:51:23;;;;;;;51.43;47.93;;;;;;;13.67;100.00;101847.23;1939715;74;33504;-76
2021/10/17 18:56:56;;;;;;;52.03;48.17;;;;;;;13.61;100.00;101851.14;1939714;74;33525;-74
2021/10/17 19:02:22;;;;;;;49.90;46.50;;;;;;;13.90;100.00;101867.58;1939868;74;33424;-73
2021/10/17 19:08:09;;;;;;;51.17;47.67;;;;;;;13.56;100.00;101878.50;1995155;71;32768;-74
2021/10/17 19:13:59;;;;;;;52.20;48.37;;;;;;;13.08;100.00;101872.89;1976527;72;32922;-72
2021/10/17 19:19:36;;;;;;;50.43;47.00;;;;;;;12.81;100.00;101878.41;1939894;74;33145;-72
2021/10/17 19:25:01;;;;;;;52.40;48.90;;;;;;;12.64;100.00;101878.09;1939967;74;33045;-74
2021/10/17 19:30:27;;;;;;;51.07;47.67;;;;;;;12.29;100.00;101872.38;1940093;74;33556;-73
2021/10/17 19:36:03;;;;;;;57.60;53.60;;;;;;;12.08;100.00;101863.63;1924102;74;28172;-73
2021/10/17 19:41:31;;;;;;;52.20;48.53;;;;;;;12.15;100.00;101874.00;1939942;74;33120;-71
2021/10/17 19:47:02;;;;;;;51.17;47.57;;;;;;;12.49;100.00;101879.45;1940067;74;33471;-74
2021/10/17 19:52:29;;;;;;;50.73;47.23;;;;;;;12.08;100.00;101879.80;1940536;74;33185;-71
2021/10/17 19:57:54;;;;;;;50.63;46.93;;;;;;;12.31;100.00;101871.01;1939928;74;33052;-72
2021/10/17 20:03:26;;;;;;;50.57;47.07;;;;;;;12.40;100.00;101880.23;1940095;74;33489;-69
2021/10/17 20:09:10;;;;;;;49.93;46.30;;;;;;;12.53;100.00;101886.70;2007246;71;33338;-70
2021/10/17 20:14:35;;;;;;;50.73;47.03;;;;;;;12.79;100.00;101889.27;1940293;74;33110;-69
2021/10/17 20:19:59;;;;;;;51.23;47.53;;;;;;;12.82;100.00;101903.79;1941082;74;33457;-74
2021/10/17 20:25:24;;;;;;;51.67;47.77;;;;;;;12.82;100.00;101901.84;1940881;74;33045;-68
2021/10/17 20:30:57;;;;;;;53.33;49.23;;;;;;;13.09;100.00;101903.84;1941081;74;33006;-71
2021/10/17 20:36:35;;;;;;;53.63;49.63;;;;;;;12.68;100.00;101902.91;1940845;74;33325;-70
2021/10/17 20:42:07;;;;;;;53.93;49.90;;;;;;;12.72;100.00;101908.77;1941035;74;33472;-73
2021/10/17 20:47:33;;;;;;;55.27;51.17;;;;;;;12.83;100.00;101915.23;1940966;74;33424;-68
2021/10/17 20:52:58;;;;;;;54.10;50.20;;;;;;;12.17;100.00;101925.53;1941037;74;32968;-69
2021/10/17 20:58:46;;;;;;;54.67;50.87;;;;;;;12.44;100.00;101922.61;2010709;71;32879;-70
2021/10/17 21:04:10;;;;;;;54.23;50.37;;;;;;;12.13;100.00;101919.38;1940085;74;33597;-70
2021/10/17 21:09:36;;;;;;;54.13;49.93;;;;;;;12.15;100.00;101929.70;1940078;74;33072;-70
2021/10/17 21:15:21;;;;;;;53.80;49.90;;;;;;;11.97;100.00;101928.20;2013073;70;33376;-70
2021/10/17 21:20:48;;;;;;;54.13;50.20;;;;;;;12.13;100.00;101924.39;1940969;74;32972;-69
2021/10/17 21:26:12;;;;;;;53.37;49.53;;;;;;;11.65;100.00;101932.92;1940650;74;33175;-72
2021/10/17 21:31:37;;;;;;;51.30;47.40;;;;;;;11.65;100.00;101938.48;1940918;74;33064;-70
2021/10/17 21:37:01;;;;;;;49.23;45.53;;;;;;;11.40;100.00;101930.22;1940930;74;33475;-72
2021/10/17 21:42:26;;;;;;;50.23;46.83;;;;;;;11.14;100.00;101939.96;1940525;74;33023;-70
2021/10/17 21:47:50;;;;;;;44.07;41.23;;;;;;;10.52;100.00;101948.71;1940372;74;33181;-71